createdAt,value
2023-03-04T00:00:34.431Z,89.60
2023-03-04T00:03:02.284Z,89.40
2023-03-04T00:05:31.093Z,89.40
2023-03-04T00:07:58.801Z,89.50
2023-03-04T00:10:26.517Z,89.50
2023-03-04T00:12:54.246Z,89.60
2023-03-04T00:15:21.994Z,89.80
2023-03-04T00:17:51.079Z,89.80
2023-03-04T00:20:19.011Z,89.50
2023-03-04T00:22:47.988Z,89.40
2023-03-04T00:25:16.239Z,89.60
2023-03-04T00:27:43.939Z,89.80
2023-03-04T00:30:12.721Z,89.50
2023-03-04T00:32:40.456Z,89.50
2023-03-04T00:35:10.285Z,89.60
2023-03-04T00:37:38.165Z,89.80
2023-03-04T00:40:07.126Z,90.00
2023-03-04T00:42:34.898Z,89.90
2023-03-04T00:45:02.684Z,89.90
2023-03-04T00:47:31.171Z,89.90
2023-03-04T00:49:59.110Z,89.70
2023-03-04T00:52:28.745Z,89.40
2023-03-04T00:54:56.487Z,89.40
2023-03-04T00:57:24.217Z,89.70
2023-03-04T00:59:51.978Z,89.90
2023-03-04T01:02:19.725Z,89.90
2023-03-04T01:04:47.478Z,90.10
2023-03-04T01:07:15.215Z,89.90
2023-03-04T01:09:44.379Z,90.00
2023-03-04T01:12:12.131Z,90.00
2023-03-04T01:14:39.951Z,89.90
2023-03-04T01:17:07.944Z,90.00
2023-03-04T01:19:35.730Z,90.20
2023-03-04T01:22:03.367Z,90.30
2023-03-04T01:24:31.743Z,90.10
2023-03-04T01:27:00.888Z,90.30
2023-03-04T01:29:30.326Z,90.40
2023-03-04T01:31:58.180Z,90.70
2023-03-04T01:34:26.018Z,90.60
2023-03-04T01:36:53.813Z,90.50
2023-03-04T01:39:21.639Z,90.30
2023-03-04T01:41:49.423Z,90.20
2023-03-04T01:44:19.435Z,90.40
2023-03-04T01:46:51.225Z,90.50
2023-03-04T01:49:21.412Z,90.60
2023-03-04T01:51:52.198Z,90.50
2023-03-04T01:54:21.295Z,90.50
2023-03-04T01:56:51.292Z,90.80
2023-03-04T01:59:25.372Z,90.90
2023-03-04T02:01:55.179Z,91.00
2023-03-04T02:04:25.687Z,91.10
2023-03-04T02:06:53.914Z,91.40
2023-03-04T02:09:22.805Z,91.40
2023-03-04T02:11:51.960Z,91.30
2023-03-04T02:14:21.916Z,91.00
2023-03-04T02:16:50.697Z,90.90
2023-03-04T02:19:32.623Z,91.00
2023-03-04T02:22:00.558Z,91.20
2023-03-04T02:24:35.747Z,91.20
2023-03-04T02:27:04.999Z,91.20
2023-03-04T02:29:33.110Z,91.30
2023-03-04T02:32:01.243Z,91.10
2023-03-04T02:34:32.273Z,91.20
2023-03-04T02:37:00.595Z,91.30
2023-03-04T02:39:33.747Z,91.30
2023-03-04T02:42:02.975Z,91.30
2023-03-04T02:44:36.030Z,91.30
2023-03-04T02:47:05.925Z,91.40
2023-03-04T02:49:35.229Z,91.40
2023-03-04T02:52:05.594Z,91.30
2023-03-04T02:54:34.320Z,91.10
2023-03-04T02:57:04.740Z,91.10
2023-03-04T02:59:36.994Z,90.80
2023-03-04T03:02:06.121Z,91.00
2023-03-04T03:04:36.890Z,91.00
2023-03-04T03:07:08.696Z,90.90
2023-03-04T03:09:37.421Z,91.10
2023-03-04T03:12:05.353Z,91.30
2023-03-04T03:14:34.208Z,91.60
2023-03-04T03:17:05.217Z,91.70
2023-03-04T03:19:33.090Z,91.60
2023-03-04T03:22:04.595Z,91.60
2023-03-04T03:24:32.449Z,91.50
2023-03-04T03:27:00.505Z,91.40
2023-03-04T03:29:29.000Z,91.40
2023-03-04T03:31:57.114Z,91.60
2023-03-04T03:34:26.437Z,91.60
2023-03-04T03:36:54.224Z,91.40
2023-03-04T03:39:22.125Z,91.30
2023-03-04T03:41:50.122Z,91.30
2023-03-04T03:44:17.966Z,91.40
2023-03-04T03:46:46.751Z,91.30
2023-03-04T03:49:14.494Z,91.60
2023-03-04T03:51:43.831Z,91.60
2023-03-04T03:54:11.593Z,91.40
2023-03-04T03:56:39.471Z,91.40
2023-03-04T03:59:07.566Z,91.50
2023-03-04T04:01:35.502Z,91.40
2023-03-04T04:04:03.190Z,91.60
2023-03-04T04:06:30.923Z,91.60
2023-03-04T04:08:59.925Z,91.60
2023-03-04T04:11:27.949Z,91.20
2023-03-04T04:13:55.636Z,91.10
2023-03-04T04:16:23.452Z,91.20
2023-03-04T04:18:51.316Z,91.30
2023-03-04T04:21:19.415Z,91.20
2023-03-04T04:23:47.187Z,91.10
2023-03-04T04:26:16.260Z,91.30
2023-03-04T04:28:43.991Z,91.60
2023-03-04T04:31:11.763Z,91.70
2023-03-04T04:33:39.841Z,91.60
2023-03-04T04:36:10.291Z,91.30
2023-03-04T04:38:38.042Z,91.40
2023-03-04T04:41:06.267Z,91.30
2023-03-04T04:43:35.613Z,91.30
2023-03-04T04:46:03.301Z,91.40
2023-03-04T04:48:31.039Z,91.50
2023-03-04T04:50:58.778Z,91.50
2023-03-04T04:53:26.574Z,91.40
2023-03-04T04:55:54.551Z,91.40
2023-03-04T04:58:22.385Z,91.50
2023-03-04T05:00:51.517Z,91.60
2023-03-04T05:03:21.414Z,91.80
2023-03-04T05:05:50.476Z,92.10
2023-03-04T05:08:18.397Z,91.90
2023-03-04T05:10:46.120Z,91.80
2023-03-04T05:13:13.872Z,92.10
2023-03-04T05:15:41.632Z,92.10
2023-03-04T05:18:10.798Z,91.80
2023-03-04T05:20:38.500Z,91.80
2023-03-04T05:23:06.267Z,91.90
2023-03-04T05:25:34.219Z,92.10
2023-03-04T05:28:02.561Z,92.10
2023-03-04T05:30:30.319Z,92.10
2023-03-04T05:32:58.075Z,92.30
2023-03-04T05:35:28.964Z,92.40
2023-03-04T05:37:57.349Z,92.40
2023-03-04T05:40:25.654Z,92.40
2023-03-04T05:42:53.508Z,92.60
2023-03-04T05:45:21.266Z,92.70
2023-03-04T05:47:49.500Z,92.40
2023-03-04T05:50:17.530Z,92.50
2023-03-04T05:52:46.791Z,92.50
2023-03-04T05:55:15.259Z,92.50
2023-03-04T05:57:43.318Z,92.50
2023-03-04T06:00:13.065Z,92.60
2023-03-04T06:02:43.394Z,92.40
2023-03-04T06:05:11.899Z,92.10
2023-03-04T06:07:42.989Z,92.20
2023-03-04T06:10:14.273Z,92.50
2023-03-04T06:12:42.280Z,92.30
2023-03-04T06:15:11.374Z,92.00
2023-03-04T06:17:42.343Z,91.90
2023-03-04T06:20:12.623Z,92.00
2023-03-04T06:22:40.461Z,92.00
2023-03-04T06:25:10.814Z,92.00
2023-03-04T06:27:42.433Z,92.20
2023-03-04T06:30:13.228Z,92.20
2023-03-04T06:32:44.161Z,92.20
2023-03-04T06:35:12.164Z,92.60
2023-03-04T06:37:41.533Z,92.50
2023-03-04T06:40:11.097Z,92.50
2023-03-04T06:42:40.128Z,92.50
2023-03-04T06:45:11.230Z,92.20
2023-03-04T06:47:39.735Z,92.20
2023-03-04T06:50:08.005Z,91.90
2023-03-04T06:52:36.132Z,92.10
2023-03-04T06:55:04.318Z,91.80
2023-03-04T06:57:32.626Z,91.80
2023-03-04T07:00:00.419Z,91.90
2023-03-04T07:02:29.468Z,91.80
2023-03-04T07:04:57.501Z,91.10
2023-03-04T07:07:26.210Z,90.50
2023-03-04T07:09:56.307Z,90.50
2023-03-04T07:12:24.305Z,90.30
2023-03-04T07:14:52.001Z,89.20
2023-03-04T07:17:19.801Z,87.70
2023-03-04T07:19:48.868Z,86.80
2023-03-04T07:22:16.637Z,84.70
2023-03-04T07:24:44.808Z,82.20
2023-03-04T07:27:13.186Z,80.10
2023-03-04T07:29:41.158Z,79.60
2023-03-04T07:32:09.678Z,79.50
2023-03-04T07:34:37.612Z,79.20
2023-03-04T07:37:06.786Z,78.30
2023-03-04T07:39:35.806Z,78.00
2023-03-04T07:42:04.697Z,75.90
2023-03-04T07:44:39.941Z,74.10
2023-03-04T07:47:07.901Z,73.20
2023-03-04T07:49:35.798Z,69.10
2023-03-04T07:52:06.249Z,68.20
2023-03-04T07:54:34.077Z,66.90
2023-03-04T07:57:01.858Z,65.10
2023-03-04T07:59:29.768Z,61.70
2023-03-04T08:01:57.542Z,62.40
2023-03-04T08:04:25.349Z,61.90
2023-03-04T08:06:54.371Z,60.90
2023-03-04T08:09:23.507Z,61.40
2023-03-04T08:11:51.404Z,64.00
2023-03-04T08:14:19.201Z,65.30
2023-03-04T08:16:47.010Z,66.60
2023-03-04T08:19:14.696Z,67.70
2023-03-04T08:21:42.396Z,70.10
2023-03-04T08:24:11.956Z,72.90
2023-03-04T08:26:43.636Z,74.40
2023-03-04T08:29:13.970Z,75.50
2023-03-04T08:31:41.787Z,76.00
2023-03-04T08:34:11.374Z,77.90
2023-03-04T08:36:39.120Z,78.40
2023-03-04T08:39:07.600Z,78.90
2023-03-04T08:41:36.351Z,78.30
2023-03-04T08:44:08.038Z,78.50
2023-03-04T08:46:36.042Z,78.90
2023-03-04T08:49:04.347Z,79.50
2023-03-04T08:51:32.866Z,80.20
2023-03-04T08:54:01.013Z,79.60
2023-03-04T08:56:28.819Z,78.90
2023-03-04T08:58:56.676Z,78.80
2023-03-04T09:01:25.714Z,77.50
2023-03-04T09:03:54.833Z,76.90
2023-03-04T09:06:22.945Z,77.70
2023-03-04T09:08:52.144Z,77.40
2023-03-04T09:11:20.630Z,76.80
2023-03-04T09:13:49.160Z,76.60
2023-03-04T09:16:16.951Z,76.00
2023-03-04T09:18:46.275Z,76.30
2023-03-04T09:21:15.501Z,75.60
2023-03-04T09:23:43.277Z,75.40
2023-03-04T09:26:23.079Z,72.00
2023-03-04T09:28:52.483Z,71.90
2023-03-04T09:31:20.655Z,72.00
2023-03-04T09:33:50.305Z,72.50
2023-03-04T09:36:18.656Z,73.30
2023-03-04T09:38:46.739Z,73.40
2023-03-04T09:41:18.030Z,73.80
2023-03-04T09:43:48.342Z,73.70
2023-03-04T09:46:20.156Z,73.60
2023-03-04T09:48:52.156Z,73.00
2023-03-04T09:51:23.448Z,73.00
2023-03-04T09:54:06.231Z,72.70
2023-03-04T09:56:37.446Z,72.90
2023-03-04T09:59:14.967Z,71.60
2023-03-04T10:01:50.351Z,71.00
2023-03-04T10:04:26.970Z,70.90
2023-03-04T10:06:55.795Z,70.70
2023-03-04T10:09:26.978Z,70.30
2023-03-04T10:12:01.569Z,70.30
2023-03-04T10:14:36.063Z,68.30
2023-03-04T10:17:09.756Z,67.40
2023-03-04T10:19:51.702Z,65.70
2023-03-04T10:22:24.355Z,65.30
2023-03-04T10:24:59.270Z,64.30
2023-03-04T10:27:30.140Z,63.20
2023-03-04T10:30:00.489Z,63.70
2023-03-04T10:32:28.422Z,62.60
2023-03-04T10:34:57.600Z,62.30
2023-03-04T10:37:25.937Z,62.00
2023-03-04T10:39:53.872Z,63.20
2023-03-04T10:42:32.092Z,63.60
2023-03-04T10:45:01.577Z,63.90
2023-03-04T10:47:31.503Z,63.90
2023-03-04T10:50:02.675Z,62.90
2023-03-04T10:52:31.844Z,63.90
2023-03-04T10:55:01.907Z,65.00
2023-03-04T10:57:35.619Z,65.10
2023-03-04T11:00:04.730Z,66.00
2023-03-04T11:02:33.658Z,65.90
2023-03-04T11:05:18.753Z,65.70
2023-03-04T11:07:55.894Z,65.00
2023-03-04T11:10:28.161Z,65.20
2023-03-04T11:13:01.328Z,64.90
2023-03-04T11:15:31.234Z,65.40
2023-03-04T11:18:03.962Z,65.40
2023-03-04T11:20:35.546Z,63.50
2023-03-04T11:23:07.452Z,64.40
2023-03-04T11:25:37.192Z,63.60
2023-03-04T11:28:12.536Z,64.60
2023-03-04T11:30:44.160Z,66.30
2023-03-04T11:33:21.777Z,65.30
2023-03-04T11:36:04.739Z,65.50
2023-03-04T11:38:36.255Z,65.90
2023-03-04T11:41:07.111Z,66.90
2023-03-04T11:43:37.673Z,66.40
2023-03-04T11:46:28.269Z,67.80
2023-03-04T11:49:10.389Z,67.80
2023-03-04T11:51:49.552Z,67.40
2023-03-04T11:54:32.384Z,68.00
2023-03-04T11:57:03.826Z,68.20
2023-03-04T11:59:51.019Z,69.00
2023-03-04T12:02:21.448Z,68.40
2023-03-04T12:05:08.644Z,68.40
2023-03-04T12:07:50.159Z,68.20
2023-03-04T12:10:27.675Z,68.50
2023-03-04T12:13:16.428Z,68.90
2023-03-04T12:15:51.158Z,67.90
2023-03-04T12:18:35.894Z,68.20
2023-03-04T12:21:19.297Z,68.70
2023-03-04T12:24:15.965Z,68.70
2023-03-04T12:26:50.390Z,68.30
2023-03-04T12:29:28.165Z,67.30
2023-03-04T12:32:09.128Z,67.70
2023-03-04T12:35:00.993Z,67.80
2023-03-04T12:37:42.719Z,68.50
2023-03-04T12:40:24.322Z,68.50
2023-03-04T12:43:05.181Z,68.30
2023-03-04T12:45:40.670Z,68.30
2023-03-04T12:48:24.256Z,67.90
2023-03-04T12:51:04.253Z,67.90
2023-03-04T12:53:44.187Z,68.30
2023-03-04T12:56:23.556Z,67.30
2023-03-04T12:58:51.816Z,67.80
2023-03-04T13:01:25.596Z,67.50
2023-03-04T13:04:01.411Z,67.60
2023-03-04T13:06:40.549Z,69.40
2023-03-04T13:09:13.702Z,69.60
2023-03-04T13:11:52.563Z,69.20
2023-03-04T13:14:26.710Z,69.60
2023-03-04T13:16:55.960Z,68.70
2023-03-04T13:19:47.183Z,67.40
2023-03-04T13:22:31.235Z,66.90
2023-03-04T13:25:00.844Z,66.90
2023-03-04T13:27:49.185Z,67.20
2023-03-04T13:30:46.787Z,68.30
2023-03-04T13:33:44.458Z,67.60
2023-03-04T13:36:33.656Z,69.70
2023-03-04T13:39:04.375Z,68.50
2023-03-04T13:41:46.818Z,66.80
2023-03-04T13:44:44.341Z,66.80
2023-03-04T13:47:19.285Z,67.00
2023-03-04T13:49:49.401Z,67.40
2023-03-04T13:52:39.212Z,67.00
2023-03-04T13:55:31.866Z,67.10
2023-03-04T13:57:59.815Z,66.80
2023-03-04T14:00:29.195Z,66.70
2023-03-04T14:03:11.593Z,66.60
2023-03-04T14:05:39.288Z,66.90
2023-03-04T14:08:19.056Z,66.50
2023-03-04T14:10:55.972Z,66.30
2023-03-04T14:13:25.421Z,65.90
2023-03-04T14:15:57.332Z,66.40
2023-03-04T14:18:28.010Z,67.20
2023-03-04T14:20:58.968Z,66.80
2023-03-04T14:23:29.857Z,67.10
2023-03-04T14:26:06.961Z,66.30
2023-03-04T14:28:42.878Z,66.70
2023-03-04T14:31:18.070Z,66.30
2023-03-04T14:33:50.088Z,65.70
2023-03-04T14:36:21.328Z,65.70
2023-03-04T14:38:54.623Z,66.20
2023-03-04T14:41:26.634Z,66.50
2023-03-04T14:44:00.729Z,66.20
2023-03-04T14:46:35.364Z,67.10
2023-03-04T14:49:04.621Z,67.50
2023-03-04T14:51:38.394Z,67.60
2023-03-04T14:54:06.557Z,67.70
2023-03-04T14:56:35.614Z,68.30
2023-03-04T14:59:03.573Z,67.90
2023-03-04T15:01:34.364Z,68.60
2023-03-04T15:04:05.626Z,69.10
2023-03-04T15:06:35.961Z,69.20
2023-03-04T15:09:06.229Z,69.20
2023-03-04T15:11:46.322Z,69.40
2023-03-04T15:14:43.822Z,68.50
2023-03-04T15:17:25.816Z,68.90
2023-03-04T15:20:18.991Z,69.30
2023-03-04T15:23:03.852Z,68.40
2023-03-04T15:25:32.009Z,68.20
2023-03-04T15:28:02.857Z,69.00
2023-03-04T15:30:34.445Z,68.80
2023-03-04T15:33:02.549Z,69.10
2023-03-04T15:35:33.999Z,69.50
2023-03-04T15:38:02.293Z,69.40
2023-03-04T15:40:32.858Z,69.40
2023-03-04T15:43:06.186Z,69.20
2023-03-04T15:45:37.426Z,68.60
2023-03-04T15:48:07.822Z,68.80
2023-03-04T15:50:40.232Z,69.00
2023-03-04T15:53:10.314Z,69.50
2023-03-04T15:55:38.441Z,69.70
2023-03-04T15:58:07.148Z,69.50
2023-03-04T16:00:35.840Z,70.00
2023-03-04T16:03:05.344Z,70.10
2023-03-04T16:05:37.886Z,69.50
2023-03-04T16:08:05.979Z,69.70
2023-03-04T16:10:34.379Z,69.80
2023-03-04T16:13:02.117Z,69.50
2023-03-04T16:15:31.288Z,70.10
2023-03-04T16:17:59.573Z,70.20
2023-03-04T16:20:30.604Z,70.10
2023-03-04T16:23:01.481Z,69.50
2023-03-04T16:25:30.199Z,70.00
2023-03-04T16:27:58.954Z,69.90
2023-03-04T16:30:28.006Z,70.10
2023-03-04T16:32:57.106Z,70.60
2023-03-04T16:35:27.615Z,70.10
2023-03-04T16:37:59.536Z,69.90
2023-03-04T16:40:30.138Z,69.90
2023-03-04T16:43:00.214Z,70.10
2023-03-04T16:45:30.866Z,70.60
2023-03-04T16:47:59.026Z,70.40
2023-03-04T16:50:30.142Z,70.30
2023-03-04T16:52:59.565Z,69.80
2023-03-04T16:55:29.158Z,70.50
2023-03-04T16:57:58.896Z,70.30
2023-03-04T17:27:52.242Z,76.10
2023-03-04T17:30:47.860Z,75.50
2023-03-04T17:33:19.072Z,76.30
2023-03-04T17:35:47.606Z,75.90
2023-03-04T17:38:16.093Z,75.70
2023-03-04T17:40:44.798Z,76.10
2023-03-04T17:43:14.157Z,76.70
2023-03-04T17:45:43.021Z,75.80
2023-03-04T17:48:15.133Z,75.20
2023-03-04T17:50:49.657Z,75.20
2023-03-04T17:53:19.000Z,75.20
2023-03-04T17:55:52.851Z,74.90
2023-03-04T17:58:25.413Z,75.20
2023-03-04T18:00:56.427Z,75.10
2023-03-04T18:03:25.412Z,75.10
2023-03-04T18:05:53.121Z,75.20
2023-03-04T18:08:23.534Z,75.10
2023-03-04T18:10:52.019Z,75.20
2023-03-04T18:13:20.534Z,76.20
2023-03-04T18:15:50.229Z,76.30
2023-03-04T18:18:20.086Z,76.90
2023-03-04T18:20:49.290Z,76.80
2023-03-04T18:23:17.153Z,77.00
2023-03-04T18:25:45.547Z,77.20
2023-03-04T18:28:14.535Z,76.90
2023-03-04T18:30:44.833Z,77.40
2023-03-04T18:33:14.414Z,77.20
2023-03-04T18:35:42.271Z,77.10
2023-03-04T18:38:10.137Z,77.30
2023-03-04T18:40:39.838Z,77.80
2023-03-04T18:43:07.606Z,78.30
2023-03-04T18:45:35.386Z,78.00
2023-03-04T18:48:05.689Z,77.10
2023-03-04T18:50:34.788Z,77.30
2023-03-04T18:53:02.660Z,77.60
2023-03-04T18:55:31.801Z,78.80
2023-03-04T18:58:05.753Z,79.40
2023-03-04T19:00:35.911Z,79.90
2023-03-04T19:03:06.852Z,80.00
2023-03-04T19:05:36.196Z,80.10
2023-03-04T19:08:06.686Z,78.20
2023-03-04T19:10:34.696Z,78.20
2023-03-04T19:13:03.258Z,77.90
2023-03-04T19:15:32.093Z,77.30
2023-03-04T19:17:59.939Z,77.20
2023-03-04T19:20:27.683Z,76.90
2023-03-04T19:22:56.700Z,77.20
2023-03-04T19:25:24.440Z,76.30
2023-03-04T19:27:55.273Z,76.40
2023-03-04T19:30:23.184Z,76.90
2023-03-04T19:32:51.125Z,76.90
2023-03-04T19:35:21.263Z,76.60
2023-03-04T19:37:49.119Z,77.40
2023-03-04T19:40:18.436Z,77.90
2023-03-04T19:42:46.148Z,78.10
2023-03-04T19:45:13.948Z,78.30
2023-03-04T19:47:41.792Z,78.10
2023-03-04T19:50:13.273Z,78.90
2023-03-04T19:52:42.076Z,77.80
2023-03-04T19:55:12.599Z,78.70
2023-03-04T19:57:42.637Z,79.20
2023-03-04T20:00:13.225Z,79.40
2023-03-04T20:02:43.042Z,79.60
2023-03-04T20:05:12.306Z,79.40
2023-03-04T20:07:40.626Z,80.00
2023-03-04T20:10:09.797Z,79.30
2023-03-04T20:12:38.838Z,79.70
2023-03-04T20:15:11.301Z,79.50
2023-03-04T20:17:39.090Z,79.50
2023-03-04T20:20:10.430Z,79.30
2023-03-04T20:22:38.949Z,79.50
2023-03-04T20:25:07.192Z,79.70
2023-03-04T20:27:34.951Z,79.30
2023-03-04T20:30:04.097Z,79.80
2023-03-04T20:32:33.391Z,80.40
2023-03-04T20:35:02.312Z,80.80
2023-03-04T20:37:30.100Z,80.80
2023-03-04T20:40:03.016Z,80.50
2023-03-04T20:42:31.968Z,80.40
2023-03-04T20:45:01.180Z,80.50
2023-03-04T20:47:31.031Z,80.30
2023-03-04T20:50:00.038Z,80.30
2023-03-04T20:52:28.289Z,80.20
2023-03-04T20:54:56.249Z,79.30
2023-03-04T20:57:25.143Z,79.80
2023-03-04T20:59:52.973Z,80.10
2023-03-04T21:02:23.406Z,80.40
2023-03-04T21:04:51.446Z,80.30
2023-03-04T21:07:20.462Z,80.20
2023-03-04T21:09:48.391Z,79.90
2023-03-04T21:12:16.185Z,80.40
2023-03-04T21:14:44.810Z,80.60
2023-03-04T21:17:14.359Z,80.60
2023-03-04T21:19:44.167Z,80.40
2023-03-04T21:22:15.863Z,80.60
2023-03-04T21:24:46.701Z,80.70
2023-03-04T21:27:16.417Z,80.60
2023-03-04T21:29:44.217Z,81.30
2023-03-04T21:32:23.925Z,81.20
2023-03-04T21:34:54.049Z,81.30
2023-03-04T21:37:22.670Z,81.50
2023-03-04T21:39:52.215Z,81.20
2023-03-04T21:42:20.400Z,81.20
2023-03-04T21:44:50.088Z,81.40
2023-03-04T21:47:18.881Z,81.50
2023-03-04T21:49:46.624Z,81.00
2023-03-04T21:52:14.496Z,81.40
2023-03-04T21:54:42.280Z,81.60
2023-03-04T21:57:11.583Z,81.60
2023-03-04T21:59:39.904Z,81.40
2023-03-04T22:02:08.520Z,81.20
2023-03-04T22:04:36.329Z,81.60
2023-03-04T22:07:04.286Z,82.00
2023-03-04T22:09:34.235Z,82.20
2023-03-04T22:12:01.926Z,82.40
2023-03-04T22:14:33.784Z,82.00
2023-03-04T22:17:01.604Z,82.10
2023-03-04T22:19:32.941Z,82.50
2023-03-04T22:22:00.781Z,82.70
2023-03-04T22:24:28.742Z,81.80
2023-03-04T22:26:57.540Z,81.90
2023-03-04T22:29:25.319Z,82.20
2023-03-04T22:31:55.015Z,82.80
2023-03-04T22:34:22.856Z,83.10
2023-03-04T22:36:50.598Z,82.80
2023-03-04T22:39:20.011Z,82.40
2023-03-04T22:41:48.345Z,82.50
2023-03-04T22:44:16.215Z,82.40
2023-03-04T22:46:44.663Z,81.60
2023-03-04T22:49:15.308Z,81.30
2023-03-04T22:51:44.822Z,81.60
2023-03-04T22:54:13.846Z,81.10
2023-03-04T22:56:41.733Z,80.40
2023-03-04T22:59:09.498Z,80.50
2023-03-04T23:01:38.035Z,81.10
2023-03-04T23:04:06.054Z,81.70
2023-03-04T23:06:36.184Z,82.00
2023-03-04T23:09:04.564Z,82.50
2023-03-04T23:11:35.255Z,82.80
2023-03-04T23:14:06.299Z,83.00
2023-03-04T23:16:36.882Z,83.10
2023-03-04T23:19:05.731Z,82.70
2023-03-04T23:21:35.133Z,82.60
2023-03-04T23:24:04.385Z,82.60
2023-03-04T23:26:34.873Z,82.80
2023-03-04T23:29:04.957Z,82.80
2023-03-04T23:31:35.339Z,82.50
2023-03-04T23:34:04.391Z,82.80
2023-03-04T23:36:34.048Z,83.30
2023-03-04T23:39:04.271Z,83.50
2023-03-04T23:41:32.782Z,83.50
2023-03-04T23:44:01.587Z,83.60
2023-03-04T23:46:29.946Z,83.50
2023-03-04T23:48:58.126Z,83.50
2023-03-04T23:51:28.025Z,83.80
2023-03-04T23:53:57.601Z,83.80
2023-03-04T23:56:29.576Z,84.10
2023-03-04T23:58:58.545Z,84.10
